sensor_id;sensor_type;location;lat;lon;timestamp;P1;durP1;ratioP1;P2;durP2;ratioP2
14235;SDS011;7202;50.718;7.072;2023-05-02T00:02:18;27.15;;;23.38;;
14235;SDS011;7202;50.718;7.072;2023-05-02T00:04:48;32.78;;;25.23;;
14235;SDS011;7202;50.718;7.072;2023-05-02T00:07:17;32.53;;;27.02;;
14235;SDS011;7202;50.718;7.072;2023-05-02T00:09:46;32.25;;;24.63;;
14235;SDS011;7202;50.718;7.072;2023-05-02T00:12:15;32.65;;;25.83;;
14235;SDS011;7202;50.718;7.072;2023-05-02T00:14:43;29.55;;;25.02;;
14235;SDS011;7202;50.718;7.072;2023-05-02T00:17:15;28.85;;;24.85;;
14235;SDS011;7202;50.718;7.072;2023-05-02T00:19:44;28.40;;;23.45;;
14235;SDS011;7202;50.718;7.072;2023-05-02T00:22:14;26.98;;;24.05;;
14235;SDS011;7202;50.718;7.072;2023-05-02T00:24:43;28.38;;;23.58;;
14235;SDS011;7202;50.718;7.072;2023-05-02T00:27:12;30.35;;;25.38;;
14235;SDS011;7202;50.718;7.072;2023-05-02T00:29:41;33.42;;;26.80;;
14235;SDS011;7202;50.718;7.072;2023-05-02T00:32:09;31.77;;;26.20;;
14235;SDS011;7202;50.718;7.072;2023-05-02T00:34:38;29.15;;;25.60;;
14235;SDS011;7202;50.718;7.072;2023-05-02T00:37:07;30.08;;;25.42;;
14235;SDS011;7202;50.718;7.072;2023-05-02T00:39:37;29.33;;;25.23;;
14235;SDS011;7202;50.718;7.072;2023-05-02T00:42:05;34.08;;;27.27;;
14235;SDS011;7202;50.718;7.072;2023-05-02T00:44:34;32.33;;;26.63;;
14235;SDS011;7202;50.718;7.072;2023-05-02T00:47:03;36.03;;;27.45;;
14235;SDS011;7202;50.718;7.072;2023-05-02T00:49:31;35.63;;;25.88;;
14235;SDS011;7202;50.718;7.072;2023-05-02T00:52:00;31.40;;;25.83;;
14235;SDS011;7202;50.718;7.072;2023-05-02T00:54:29;32.45;;;26.05;;
14235;SDS011;7202;50.718;7.072;2023-05-02T00:56:59;30.70;;;23.83;;
14235;SDS011;7202;50.718;7.072;2023-05-02T00:59:28;29.15;;;24.25;;
14235;SDS011;7202;50.718;7.072;2023-05-02T01:01:59;32.95;;;25.58;;
14235;SDS011;7202;50.718;7.072;2023-05-02T01:04:39;31.60;;;25.98;;
14235;SDS011;7202;50.718;7.072;2023-05-02T01:07:20;36.95;;;27.17;;
14235;SDS011;7202;50.718;7.072;2023-05-02T01:10:04;33.63;;;26.58;;
14235;SDS011;7202;50.718;7.072;2023-05-02T01:12:43;36.40;;;27.20;;
14235;SDS011;7202;50.718;7.072;2023-05-02T01:15:19;33.17;;;26.85;;
14235;SDS011;7202;50.718;7.072;2023-05-02T01:17:49;30.13;;;24.50;;
14235;SDS011;7202;50.718;7.072;2023-05-02T01:20:22;36.83;;;27.80;;
14235;SDS011;7202;50.718;7.072;2023-05-02T01:22:55;37.78;;;25.88;;
14235;SDS011;7202;50.718;7.072;2023-05-02T01:25:28;36.45;;;26.88;;
14235;SDS011;7202;50.718;7.072;2023-05-02T01:28:08;36.03;;;26.85;;
14235;SDS011;7202;50.718;7.072;2023-05-02T01:30:44;33.55;;;27.17;;
14235;SDS011;7202;50.718;7.072;2023-05-02T01:33:15;34.85;;;25.45;;
14235;SDS011;7202;50.718;7.072;2023-05-02T01:35:46;33.90;;;26.30;;
14235;SDS011;7202;50.718;7.072;2023-05-02T01:38:18;35.33;;;27.25;;
14235;SDS011;7202;50.718;7.072;2023-05-02T01:40:49;34.83;;;26.50;;
14235;SDS011;7202;50.718;7.072;2023-05-02T01:43:18;32.30;;;25.60;;
14235;SDS011;7202;50.718;7.072;2023-05-02T01:45:49;32.45;;;25.67;;
14235;SDS011;7202;50.718;7.072;2023-05-02T01:48:18;32.53;;;25.83;;
14235;SDS011;7202;50.718;7.072;2023-05-02T01:50:50;29.67;;;24.10;;
14235;SDS011;7202;50.718;7.072;2023-05-02T01:53:19;35.58;;;27.05;;
14235;SDS011;7202;50.718;7.072;2023-05-02T01:55:49;36.15;;;27.35;;
14235;SDS011;7202;50.718;7.072;2023-05-02T01:58:20;34.70;;;26.42;;
14235;SDS011;7202;50.718;7.072;2023-05-02T02:00:51;31.85;;;26.15;;
14235;SDS011;7202;50.718;7.072;2023-05-02T02:03:20;42.17;;;27.83;;
14235;SDS011;7202;50.718;7.072;2023-05-02T02:05:52;37.33;;;27.73;;
14235;SDS011;7202;50.718;7.072;2023-05-02T02:08:23;36.70;;;29.17;;
14235;SDS011;7202;50.718;7.072;2023-05-02T02:10:53;37.05;;;28.08;;
14235;SDS011;7202;50.718;7.072;2023-05-02T02:13:26;35.70;;;27.40;;
14235;SDS011;7202;50.718;7.072;2023-05-02T02:16:02;37.75;;;28.05;;
14235;SDS011;7202;50.718;7.072;2023-05-02T02:18:36;38.55;;;28.23;;
14235;SDS011;7202;50.718;7.072;2023-05-02T02:21:08;37.60;;;28.10;;
14235;SDS011;7202;50.718;7.072;2023-05-02T02:23:38;36.13;;;27.13;;
14235;SDS011;7202;50.718;7.072;2023-05-02T02:26:11;38.58;;;29.70;;
14235;SDS011;7202;50.718;7.072;2023-05-02T02:28:41;39.90;;;30.25;;
14235;SDS011;7202;50.718;7.072;2023-05-02T02:31:11;44.17;;;31.33;;
14235;SDS011;7202;50.718;7.072;2023-05-02T02:33:40;39.45;;;29.52;;
14235;SDS011;7202;50.718;7.072;2023-05-02T02:36:10;42.40;;;32.35;;
14235;SDS011;7202;50.718;7.072;2023-05-02T02:38:44;41.28;;;30.55;;
14235;SDS011;7202;50.718;7.072;2023-05-02T02:41:18;41.40;;;30.92;;
14235;SDS011;7202;50.718;7.072;2023-05-02T02:43:52;43.20;;;31.45;;
14235;SDS011;7202;50.718;7.072;2023-05-02T02:46:33;43.30;;;29.98;;
14235;SDS011;7202;50.718;7.072;2023-05-02T02:49:12;41.97;;;30.75;;
14235;SDS011;7202;50.718;7.072;2023-05-02T02:51:52;44.83;;;31.13;;
14235;SDS011;7202;50.718;7.072;2023-05-02T02:54:28;43.80;;;31.25;;
14235;SDS011;7202;50.718;7.072;2023-05-02T02:57:03;44.17;;;31.77;;
14235;SDS011;7202;50.718;7.072;2023-05-02T02:59:39;44.72;;;29.92;;
14235;SDS011;7202;50.718;7.072;2023-05-02T03:02:17;42.65;;;30.20;;
14235;SDS011;7202;50.718;7.072;2023-05-02T03:04:49;42.28;;;28.42;;
14235;SDS011;7202;50.718;7.072;2023-05-02T03:07:20;37.88;;;26.48;;
14235;SDS011;7202;50.718;7.072;2023-05-02T03:09:49;40.03;;;27.98;;
14235;SDS011;7202;50.718;7.072;2023-05-02T03:12:21;38.10;;;25.35;;
14235;SDS011;7202;50.718;7.072;2023-05-02T03:14:50;39.92;;;26.85;;
14235;SDS011;7202;50.718;7.072;2023-05-02T03:17:20;39.03;;;25.48;;
14235;SDS011;7202;50.718;7.072;2023-05-02T03:19:52;41.00;;;25.42;;
14235;SDS011;7202;50.718;7.072;2023-05-02T03:22:21;42.95;;;26.67;;
14235;SDS011;7202;50.718;7.072;2023-05-02T03:24:50;40.42;;;27.17;;
14235;SDS011;7202;50.718;7.072;2023-05-02T03:27:19;45.60;;;28.58;;
14235;SDS011;7202;50.718;7.072;2023-05-02T03:29:48;44.00;;;28.95;;
14235;SDS011;7202;50.718;7.072;2023-05-02T03:32:16;44.33;;;27.17;;
14235;SDS011;7202;50.718;7.072;2023-05-02T03:34:46;42.33;;;27.20;;
14235;SDS011;7202;50.718;7.072;2023-05-02T03:37:15;44.80;;;27.92;;
14235;SDS011;7202;50.718;7.072;2023-05-02T03:39:43;40.45;;;24.17;;
14235;SDS011;7202;50.718;7.072;2023-05-02T03:42:12;37.22;;;24.40;;
14235;SDS011;7202;50.718;7.072;2023-05-02T03:44:40;39.78;;;24.20;;
14235;SDS011;7202;50.718;7.072;2023-05-02T03:47:09;39.78;;;24.58;;
14235;SDS011;7202;50.718;7.072;2023-05-02T03:49:41;36.47;;;22.67;;
14235;SDS011;7202;50.718;7.072;2023-05-02T03:52:11;34.92;;;21.92;;
14235;SDS011;7202;50.718;7.072;2023-05-02T03:54:41;35.85;;;22.98;;
14235;SDS011;7202;50.718;7.072;2023-05-02T03:57:10;37.22;;;22.40;;
14235;SDS011;7202;50.718;7.072;2023-05-02T03:59:39;39.55;;;24.17;;
14235;SDS011;7202;50.718;7.072;2023-05-02T04:02:17;40.50;;;23.67;;
14235;SDS011;7202;50.718;7.072;2023-05-02T04:04:47;34.22;;;22.35;;
14235;SDS011;7202;50.718;7.072;2023-05-02T04:07:20;35.65;;;23.08;;
14235;SDS011;7202;50.718;7.072;2023-05-02T04:09:57;38.83;;;23.35;;
14235;SDS011;7202;50.718;7.072;2023-05-02T04:12:28;42.05;;;23.23;;
14235;SDS011;7202;50.718;7.072;2023-05-02T04:14:56;39.13;;;24.50;;
14235;SDS011;7202;50.718;7.072;2023-05-02T04:17:28;43.60;;;25.85;;
14235;SDS011;7202;50.718;7.072;2023-05-02T04:19:56;44.42;;;26.33;;
14235;SDS011;7202;50.718;7.072;2023-05-02T04:22:30;41.97;;;24.73;;
14235;SDS011;7202;50.718;7.072;2023-05-02T04:25:03;38.90;;;23.80;;
14235;SDS011;7202;50.718;7.072;2023-05-02T04:27:33;41.60;;;24.52;;
14235;SDS011;7202;50.718;7.072;2023-05-02T04:30:02;39.13;;;23.40;;
14235;SDS011;7202;50.718;7.072;2023-05-02T04:32:32;43.83;;;23.55;;
14235;SDS011;7202;50.718;7.072;2023-05-02T04:35:02;37.97;;;22.48;;
14235;SDS011;7202;50.718;7.072;2023-05-02T04:37:33;39.78;;;23.02;;
14235;SDS011;7202;50.718;7.072;2023-05-02T04:40:03;34.92;;;22.70;;
14235;SDS011;7202;50.718;7.072;2023-05-02T04:42:32;36.22;;;22.95;;
14235;SDS011;7202;50.718;7.072;2023-05-02T04:45:12;35.97;;;21.58;;
14235;SDS011;7202;50.718;7.072;2023-05-02T04:47:42;35.40;;;22.02;;
14235;SDS011;7202;50.718;7.072;2023-05-02T04:50:11;34.45;;;22.60;;
14235;SDS011;7202;50.718;7.072;2023-05-02T04:52:41;33.88;;;23.13;;
14235;SDS011;7202;50.718;7.072;2023-05-02T04:55:10;36.20;;;24.48;;
14235;SDS011;7202;50.718;7.072;2023-05-02T04:57:39;39.35;;;24.50;;
14235;SDS011;7202;50.718;7.072;2023-05-02T05:00:12;34.20;;;22.58;;
14235;SDS011;7202;50.718;7.072;2023-05-02T05:02:41;39.63;;;23.88;;
14235;SDS011;7202;50.718;7.072;2023-05-02T05:05:12;40.30;;;25.70;;
14235;SDS011;7202;50.718;7.072;2023-05-02T05:07:42;44.72;;;26.85;;
14235;SDS011;7202;50.718;7.072;2023-05-02T05:10:11;37.50;;;24.60;;
14235;SDS011;7202;50.718;7.072;2023-05-02T05:12:44;42.25;;;26.95;;
14235;SDS011;7202;50.718;7.072;2023-05-02T05:15:14;44.08;;;28.35;;
14235;SDS011;7202;50.718;7.072;2023-05-02T05:17:48;41.83;;;26.48;;
14235;SDS011;7202;50.718;7.072;2023-05-02T05:20:17;41.45;;;26.35;;
14235;SDS011;7202;50.718;7.072;2023-05-02T05:22:48;47.92;;;29.08;;
14235;SDS011;7202;50.718;7.072;2023-05-02T05:25:19;46.53;;;28.65;;
14235;SDS011;7202;50.718;7.072;2023-05-02T05:27:50;45.88;;;29.75;;
14235;SDS011;7202;50.718;7.072;2023-05-02T05:30:19;51.15;;;29.50;;
14235;SDS011;7202;50.718;7.072;2023-05-02T05:32:48;56.08;;;32.60;;
14235;SDS011;7202;50.718;7.072;2023-05-02T05:35:17;48.30;;;30.08;;
14235;SDS011;7202;50.718;7.072;2023-05-02T05:37:45;52.28;;;31.77;;
14235;SDS011;7202;50.718;7.072;2023-05-02T05:40:17;46.92;;;29.73;;
14235;SDS011;7202;50.718;7.072;2023-05-02T05:42:52;53.03;;;32.03;;
14235;SDS011;7202;50.718;7.072;2023-05-02T05:45:25;53.80;;;33.05;;
14235;SDS011;7202;50.718;7.072;2023-05-02T05:47:54;53.03;;;30.88;;
14235;SDS011;7202;50.718;7.072;2023-05-02T05:50:25;49.35;;;30.20;;
14235;SDS011;7202;50.718;7.072;2023-05-02T05:52:54;51.08;;;31.40;;
14235;SDS011;7202;50.718;7.072;2023-05-02T05:55:24;49.30;;;30.90;;
14235;SDS011;7202;50.718;7.072;2023-05-02T05:57:55;50.70;;;30.63;;
14235;SDS011;7202;50.718;7.072;2023-05-02T06:00:23;49.97;;;30.27;;
14235;SDS011;7202;50.718;7.072;2023-05-02T06:02:52;47.10;;;28.00;;
14235;SDS011;7202;50.718;7.072;2023-05-02T06:05:26;40.50;;;26.52;;
14235;SDS011;7202;50.718;7.072;2023-05-02T06:07:55;44.92;;;28.30;;
14235;SDS011;7202;50.718;7.072;2023-05-02T06:10:25;45.80;;;27.55;;
14235;SDS011;7202;50.718;7.072;2023-05-02T06:12:54;41.97;;;26.05;;
14235;SDS011;7202;50.718;7.072;2023-05-02T06:15:27;41.35;;;25.15;;
14235;SDS011;7202;50.718;7.072;2023-05-02T06:17:56;39.00;;;24.17;;
14235;SDS011;7202;50.718;7.072;2023-05-02T06:20:25;37.13;;;21.98;;
14235;SDS011;7202;50.718;7.072;2023-05-02T06:22:53;32.80;;;20.27;;
14235;SDS011;7202;50.718;7.072;2023-05-02T06:25:22;31.15;;;19.20;;
14235;SDS011;7202;50.718;7.072;2023-05-02T06:27:53;32.70;;;18.77;;
14235;SDS011;7202;50.718;7.072;2023-05-02T06:30:21;30.15;;;18.20;;
14235;SDS011;7202;50.718;7.072;2023-05-02T06:32:50;32.25;;;19.15;;
14235;SDS011;7202;50.718;7.072;2023-05-02T06:35:19;24.35;;;15.82;;
14235;SDS011;7202;50.718;7.072;2023-05-02T06:37:47;26.45;;;17.60;;
14235;SDS011;7202;50.718;7.072;2023-05-02T06:40:16;30.35;;;18.45;;
14235;SDS011;7202;50.718;7.072;2023-05-02T06:42:45;28.63;;;17.63;;
14235;SDS011;7202;50.718;7.072;2023-05-02T06:45:17;26.60;;;17.50;;
14235;SDS011;7202;50.718;7.072;2023-05-02T06:47:46;29.60;;;18.50;;
14235;SDS011;7202;50.718;7.072;2023-05-02T06:50:15;28.00;;;17.95;;
14235;SDS011;7202;50.718;7.072;2023-05-02T06:52:44;31.83;;;17.90;;
14235;SDS011;7202;50.718;7.072;2023-05-02T06:55:12;32.22;;;18.70;;
14235;SDS011;7202;50.718;7.072;2023-05-02T06:57:41;28.02;;;17.50;;
14235;SDS011;7202;50.718;7.072;2023-05-02T07:00:11;29.02;;;17.17;;
14235;SDS011;7202;50.718;7.072;2023-05-02T07:02:42;25.98;;;17.77;;
14235;SDS011;7202;50.718;7.072;2023-05-02T07:05:11;25.23;;;17.08;;
14235;SDS011;7202;50.718;7.072;2023-05-02T07:07:41;30.40;;;16.58;;
14235;SDS011;7202;50.718;7.072;2023-05-02T07:10:10;28.13;;;17.17;;
14235;SDS011;7202;50.718;7.072;2023-05-02T07:12:39;29.20;;;16.15;;
14235;SDS011;7202;50.718;7.072;2023-05-02T07:15:07;24.08;;;14.57;;
14235;SDS011;7202;50.718;7.072;2023-05-02T07:17:37;26.50;;;15.02;;
14235;SDS011;7202;50.718;7.072;2023-05-02T07:20:07;24.83;;;15.25;;
14235;SDS011;7202;50.718;7.072;2023-05-02T07:22:37;24.88;;;14.43;;
14235;SDS011;7202;50.718;7.072;2023-05-02T07:25:06;21.85;;;14.82;;
14235;SDS011;7202;50.718;7.072;2023-05-02T07:27:36;25.40;;;16.17;;
14235;SDS011;7202;50.718;7.072;2023-05-02T07:30:05;25.88;;;15.98;;
14235;SDS011;7202;50.718;7.072;2023-05-02T07:32:34;25.10;;;15.98;;
14235;SDS011;7202;50.718;7.072;2023-05-02T07:35:04;24.08;;;16.10;;
14235;SDS011;7202;50.718;7.072;2023-05-02T07:37:34;25.98;;;16.60;;
14235;SDS011;7202;50.718;7.072;2023-05-02T07:40:03;22.65;;;16.00;;
14235;SDS011;7202;50.718;7.072;2023-05-02T07:42:33;24.15;;;15.63;;
14235;SDS011;7202;50.718;7.072;2023-05-02T07:45:03;24.60;;;15.55;;
14235;SDS011;7202;50.718;7.072;2023-05-02T07:47:32;26.05;;;15.90;;
14235;SDS011;7202;50.718;7.072;2023-05-02T07:50:01;19.92;;;14.07;;
14235;SDS011;7202;50.718;7.072;2023-05-02T07:52:30;21.85;;;13.88;;
14235;SDS011;7202;50.718;7.072;2023-05-02T07:55:00;22.92;;;12.85;;
14235;SDS011;7202;50.718;7.072;2023-05-02T07:57:29;19.90;;;12.48;;
14235;SDS011;7202;50.718;7.072;2023-05-02T07:59:57;17.88;;;11.82;;
14235;SDS011;7202;50.718;7.072;2023-05-02T08:02:27;15.98;;;11.65;;
14235;SDS011;7202;50.718;7.072;2023-05-02T08:04:56;18.23;;;12.73;;
14235;SDS011;7202;50.718;7.072;2023-05-02T08:07:24;18.08;;;12.30;;
14235;SDS011;7202;50.718;7.072;2023-05-02T08:09:53;19.00;;;12.60;;
14235;SDS011;7202;50.718;7.072;2023-05-02T08:12:23;20.85;;;12.43;;
14235;SDS011;7202;50.718;7.072;2023-05-02T08:14:52;17.23;;;12.27;;
14235;SDS011;7202;50.718;7.072;2023-05-02T08:17:24;18.63;;;12.98;;
14235;SDS011;7202;50.718;7.072;2023-05-02T08:19:55;20.70;;;13.18;;
14235;SDS011;7202;50.718;7.072;2023-05-02T08:22:24;22.02;;;14.05;;
14235;SDS011;7202;50.718;7.072;2023-05-02T08:24:52;22.25;;;14.55;;
14235;SDS011;7202;50.718;7.072;2023-05-02T08:27:21;20.58;;;13.45;;
14235;SDS011;7202;50.718;7.072;2023-05-02T08:29:51;16.63;;;11.68;;
14235;SDS011;7202;50.718;7.072;2023-05-02T08:32:20;14.10;;;10.07;;
14235;SDS011;7202;50.718;7.072;2023-05-02T08:34:49;12.25;;;9.02;;
14235;SDS011;7202;50.718;7.072;2023-05-02T08:37:17;12.25;;;7.28;;
14235;SDS011;7202;50.718;7.072;2023-05-02T08:39:46;10.57;;;6.47;;
14235;SDS011;7202;50.718;7.072;2023-05-02T08:42:15;9.00;;;5.97;;
14235;SDS011;7202;50.718;7.072;2023-05-02T08:44:43;6.35;;;5.28;;
14235;SDS011;7202;50.718;7.072;2023-05-02T08:47:13;10.10;;;6.55;;
14235;SDS011;7202;50.718;7.072;2023-05-02T08:49:46;6.53;;;5.30;;
14235;SDS011;7202;50.718;7.072;2023-05-02T08:52:17;11.25;;;6.55;;
14235;SDS011;7202;50.718;7.072;2023-05-02T08:54:47;10.20;;;7.05;;
14235;SDS011;7202;50.718;7.072;2023-05-02T08:57:17;11.38;;;7.80;;
14235;SDS011;7202;50.718;7.072;2023-05-02T08:59:46;11.63;;;9.15;;
14235;SDS011;7202;50.718;7.072;2023-05-02T09:02:20;12.38;;;9.43;;
14235;SDS011;7202;50.718;7.072;2023-05-02T09:04:57;22.65;;;15.20;;
14235;SDS011;7202;50.718;7.072;2023-05-02T09:07:30;23.85;;;16.35;;
14235;SDS011;7202;50.718;7.072;2023-05-02T09:10:08;24.42;;;16.83;;
14235;SDS011;7202;50.718;7.072;2023-05-02T09:12:38;25.08;;;17.50;;
14235;SDS011;7202;50.718;7.072;2023-05-02T09:15:10;23.92;;;17.95;;
14235;SDS011;7202;50.718;7.072;2023-05-02T09:17:42;24.55;;;17.45;;
14235;SDS011;7202;50.718;7.072;2023-05-02T09:20:12;26.67;;;17.58;;
14235;SDS011;7202;50.718;7.072;2023-05-02T09:22:46;23.70;;;17.27;;
14235;SDS011;7202;50.718;7.072;2023-05-02T09:25:16;26.02;;;17.08;;
14235;SDS011;7202;50.718;7.072;2023-05-02T09:27:52;26.70;;;17.30;;
14235;SDS011;7202;50.718;7.072;2023-05-02T09:30:23;29.05;;;18.25;;
14235;SDS011;7202;50.718;7.072;2023-05-02T09:32:54;29.83;;;18.02;;
14235;SDS011;7202;50.718;7.072;2023-05-02T09:35:22;23.45;;;16.77;;
14235;SDS011;7202;50.718;7.072;2023-05-02T09:37:52;21.77;;;15.70;;
14235;SDS011;7202;50.718;7.072;2023-05-02T09:40:21;21.65;;;14.80;;
14235;SDS011;7202;50.718;7.072;2023-05-02T09:42:51;12.73;;;8.93;;
14235;SDS011;7202;50.718;7.072;2023-05-02T09:45:20;12.88;;;6.45;;
14235;SDS011;7202;50.718;7.072;2023-05-02T09:47:49;11.35;;;7.53;;
14235;SDS011;7202;50.718;7.072;2023-05-02T09:50:32;10.00;;;6.30;;
14235;SDS011;7202;50.718;7.072;2023-05-02T09:53:06;7.22;;;5.97;;
14235;SDS011;7202;50.718;7.072;2023-05-02T09:55:37;8.48;;;5.57;;
14235;SDS011;7202;50.718;7.072;2023-05-02T09:58:06;7.85;;;5.32;;
14235;SDS011;7202;50.718;7.072;2023-05-02T10:00:47;7.93;;;4.10;;
14235;SDS011;7202;50.718;7.072;2023-05-02T10:03:18;5.47;;;3.55;;
14235;SDS011;7202;50.718;7.072;2023-05-02T10:05:48;5.28;;;3.40;;
14235;SDS011;7202;50.718;7.072;2023-05-02T10:08:18;8.98;;;3.40;;
14235;SDS011;7202;50.718;7.072;2023-05-02T10:10:49;8.55;;;3.85;;
14235;SDS011;7202;50.718;7.072;2023-05-02T10:13:20;5.45;;;2.80;;
14235;SDS011;7202;50.718;7.072;2023-05-02T10:15:53;3.88;;;3.10;;
14235;SDS011;7202;50.718;7.072;2023-05-02T10:18:28;8.30;;;3.90;;
14235;SDS011;7202;50.718;7.072;2023-05-02T10:21:04;13.93;;;7.38;;
14235;SDS011;7202;50.718;7.072;2023-05-02T10:23:35;12.57;;;7.43;;
14235;SDS011;7202;50.718;7.072;2023-05-02T10:26:09;15.27;;;9.38;;
14235;SDS011;7202;50.718;7.072;2023-05-02T10:28:40;15.88;;;10.93;;
14235;SDS011;7202;50.718;7.072;2023-05-02T10:31:09;19.27;;;11.90;;
14235;SDS011;7202;50.718;7.072;2023-05-02T10:33:38;16.77;;;10.90;;
14235;SDS011;7202;50.718;7.072;2023-05-02T10:36:09;15.18;;;10.88;;
14235;SDS011;7202;50.718;7.072;2023-05-02T10:38:41;13.57;;;10.10;;
14235;SDS011;7202;50.718;7.072;2023-05-02T10:41:11;13.27;;;9.43;;
14235;SDS011;7202;50.718;7.072;2023-05-02T10:43:44;11.85;;;9.35;;
14235;SDS011;7202;50.718;7.072;2023-05-02T10:46:30;12.40;;;9.48;;
14235;SDS011;7202;50.718;7.072;2023-05-02T10:49:01;13.77;;;9.50;;
14235;SDS011;7202;50.718;7.072;2023-05-02T10:51:32;16.15;;;10.63;;
14235;SDS011;7202;50.718;7.072;2023-05-02T10:54:17;17.27;;;11.30;;
14235;SDS011;7202;50.718;7.072;2023-05-02T10:59:39;18.95;;;11.02;;
14235;SDS011;7202;50.718;7.072;2023-05-02T11:05:14;12.52;;;10.98;;
14235;SDS011;7202;50.718;7.072;2023-05-02T11:07:44;16.35;;;11.77;;
14235;SDS011;7202;50.718;7.072;2023-05-02T11:10:25;16.92;;;11.35;;
14235;SDS011;7202;50.718;7.072;2023-05-02T11:12:55;16.95;;;11.50;;
14235;SDS011;7202;50.718;7.072;2023-05-02T11:18:25;13.02;;;8.32;;
14235;SDS011;7202;50.718;7.072;2023-05-02T11:21:23;11.35;;;8.63;;
14235;SDS011;7202;50.718;7.072;2023-05-02T11:30:06;13.55;;;9.30;;
14235;SDS011;7202;50.718;7.072;2023-05-02T11:35:40;12.07;;;10.05;;
14235;SDS011;7202;50.718;7.072;2023-05-02T11:38:10;11.18;;;8.73;;
14235;SDS011;7202;50.718;7.072;2023-05-02T11:40:47;11.68;;;9.95;;
14235;SDS011;7202;50.718;7.072;2023-05-02T11:43:24;12.80;;;9.68;;
14235;SDS011;7202;50.718;7.072;2023-05-02T11:45:58;12.88;;;9.63;;
14235;SDS011;7202;50.718;7.072;2023-05-02T11:48:29;13.30;;;9.85;;
14235;SDS011;7202;50.718;7.072;2023-05-02T11:50:59;12.77;;;10.32;;
14235;SDS011;7202;50.718;7.072;2023-05-02T11:53:30;15.95;;;11.55;;
14235;SDS011;7202;50.718;7.072;2023-05-02T11:56:00;14.80;;;11.10;;
14235;SDS011;7202;50.718;7.072;2023-05-02T11:58:30;11.52;;;9.52;;
14235;SDS011;7202;50.718;7.072;2023-05-02T12:01:11;11.75;;;8.70;;
14235;SDS011;7202;50.718;7.072;2023-05-02T12:03:40;11.93;;;8.45;;
14235;SDS011;7202;50.718;7.072;2023-05-02T12:06:10;9.77;;;8.18;;
14235;SDS011;7202;50.718;7.072;2023-05-02T12:08:41;11.80;;;7.45;;
14235;SDS011;7202;50.718;7.072;2023-05-02T12:11:11;9.20;;;6.93;;
14235;SDS011;7202;50.718;7.072;2023-05-02T12:13:46;13.77;;;7.70;;
14235;SDS011;7202;50.718;7.072;2023-05-02T12:16:18;9.77;;;7.30;;
14235;SDS011;7202;50.718;7.072;2023-05-02T12:18:47;14.70;;;8.30;;
14235;SDS011;7202;50.718;7.072;2023-05-02T12:21:16;11.80;;;7.72;;
14235;SDS011;7202;50.718;7.072;2023-05-02T12:23:45;11.05;;;8.07;;
14235;SDS011;7202;50.718;7.072;2023-05-02T12:26:17;13.95;;;8.77;;
14235;SDS011;7202;50.718;7.072;2023-05-02T12:28:47;10.50;;;8.82;;
14235;SDS011;7202;50.718;7.072;2023-05-02T12:31:18;15.32;;;10.38;;
14235;SDS011;7202;50.718;7.072;2023-05-02T12:33:46;13.93;;;10.45;;
14235;SDS011;7202;50.718;7.072;2023-05-02T12:36:17;12.02;;;9.30;;
14235;SDS011;7202;50.718;7.072;2023-05-02T12:38:49;13.27;;;9.95;;
14235;SDS011;7202;50.718;7.072;2023-05-02T12:41:29;15.45;;;10.48;;
14235;SDS011;7202;50.718;7.072;2023-05-02T12:43:59;18.48;;;13.32;;
14235;SDS011;7202;50.718;7.072;2023-05-02T12:46:29;20.27;;;15.35;;
14235;SDS011;7202;50.718;7.072;2023-05-02T12:49:02;19.15;;;14.15;;
14235;SDS011;7202;50.718;7.072;2023-05-02T12:51:32;20.88;;;12.85;;
14235;SDS011;7202;50.718;7.072;2023-05-02T12:54:01;19.38;;;12.88;;
14235;SDS011;7202;50.718;7.072;2023-05-02T12:56:31;16.73;;;10.98;;
14235;SDS011;7202;50.718;7.072;2023-05-02T12:59:06;16.92;;;10.85;;
14235;SDS011;7202;50.718;7.072;2023-05-02T13:01:36;12.90;;;9.80;;
14235;SDS011;7202;50.718;7.072;2023-05-02T13:04:05;13.75;;;10.02;;
14235;SDS011;7202;50.718;7.072;2023-05-02T13:06:34;14.23;;;9.82;;
14235;SDS011;7202;50.718;7.072;2023-05-02T13:09:04;10.88;;;8.32;;
14235;SDS011;7202;50.718;7.072;2023-05-02T13:11:33;12.55;;;7.93;;
14235;SDS011;7202;50.718;7.072;2023-05-02T13:14:02;10.02;;;6.82;;
14235;SDS011;7202;50.718;7.072;2023-05-02T13:16:31;7.88;;;6.38;;
14235;SDS011;7202;50.718;7.072;2023-05-02T13:19:04;9.48;;;6.65;;
14235;SDS011;7202;50.718;7.072;2023-05-02T13:21:32;9.23;;;6.15;;
14235;SDS011;7202;50.718;7.072;2023-05-02T13:24:01;11.70;;;5.93;;
14235;SDS011;7202;50.718;7.072;2023-05-02T13:26:30;11.07;;;6.15;;
14235;SDS011;7202;50.718;7.072;2023-05-02T13:28:59;8.45;;;6.30;;
14235;SDS011;7202;50.718;7.072;2023-05-02T13:31:27;6.97;;;5.57;;
14235;SDS011;7202;50.718;7.072;2023-05-02T13:33:56;10.13;;;6.38;;
14235;SDS011;7202;50.718;7.072;2023-05-02T13:36:26;9.27;;;6.05;;
14235;SDS011;7202;50.718;7.072;2023-05-02T13:38:55;8.57;;;5.50;;
14235;SDS011;7202;50.718;7.072;2023-05-02T13:41:24;11.30;;;6.60;;
14235;SDS011;7202;50.718;7.072;2023-05-02T13:43:52;8.32;;;5.97;;
14235;SDS011;7202;50.718;7.072;2023-05-02T13:46:21;17.27;;;6.97;;
14235;SDS011;7202;50.718;7.072;2023-05-02T13:48:49;13.05;;;7.00;;
14235;SDS011;7202;50.718;7.072;2023-05-02T13:51:18;12.23;;;6.53;;
14235;SDS011;7202;50.718;7.072;2023-05-02T13:53:48;10.07;;;6.22;;
14235;SDS011;7202;50.718;7.072;2023-05-02T13:56:17;10.13;;;6.40;;
14235;SDS011;7202;50.718;7.072;2023-05-02T13:58:45;13.43;;;7.15;;
14235;SDS011;7202;50.718;7.072;2023-05-02T14:01:14;9.05;;;6.30;;
14235;SDS011;7202;50.718;7.072;2023-05-02T14:03:43;8.75;;;6.95;;
14235;SDS011;7202;50.718;7.072;2023-05-02T14:06:11;10.05;;;6.60;;
14235;SDS011;7202;50.718;7.072;2023-05-02T14:08:40;12.60;;;7.53;;
14235;SDS011;7202;50.718;7.072;2023-05-02T14:11:10;10.57;;;6.78;;
14235;SDS011;7202;50.718;7.072;2023-05-02T14:13:39;10.75;;;6.55;;
14235;SDS011;7202;50.718;7.072;2023-05-02T14:16:07;9.27;;;6.60;;
14235;SDS011;7202;50.718;7.072;2023-05-02T14:18:36;9.38;;;6.50;;
14235;SDS011;7202;50.718;7.072;2023-05-02T14:21:05;9.93;;;7.07;;
14235;SDS011;7202;50.718;7.072;2023-05-02T14:23:34;10.88;;;7.22;;
14235;SDS011;7202;50.718;7.072;2023-05-02T14:26:02;13.20;;;7.13;;
14235;SDS011;7202;50.718;7.072;2023-05-02T14:28:32;12.15;;;6.57;;
14235;SDS011;7202;50.718;7.072;2023-05-02T14:31:03;10.35;;;6.65;;
14235;SDS011;7202;50.718;7.072;2023-05-02T14:33:32;11.82;;;6.32;;
14235;SDS011;7202;50.718;7.072;2023-05-02T14:36:00;12.07;;;6.38;;
14235;SDS011;7202;50.718;7.072;2023-05-02T14:38:29;12.48;;;6.55;;
14235;SDS011;7202;50.718;7.072;2023-05-02T14:40:58;11.85;;;6.28;;
14235;SDS011;7202;50.718;7.072;2023-05-02T14:43:28;7.72;;;5.40;;
14235;SDS011;7202;50.718;7.072;2023-05-02T14:45:58;9.40;;;6.00;;
14235;SDS011;7202;50.718;7.072;2023-05-02T14:48:28;14.00;;;5.80;;
14235;SDS011;7202;50.718;7.072;2023-05-02T14:50:57;7.55;;;5.25;;
14235;SDS011;7202;50.718;7.072;2023-05-02T14:53:27;8.88;;;5.45;;
14235;SDS011;7202;50.718;7.072;2023-05-02T14:55:55;13.55;;;6.45;;
14235;SDS011;7202;50.718;7.072;2023-05-02T14:58:24;7.55;;;5.75;;
14235;SDS011;7202;50.718;7.072;2023-05-02T15:00:52;10.32;;;7.13;;
14235;SDS011;7202;50.718;7.072;2023-05-02T15:03:22;11.05;;;7.03;;
14235;SDS011;7202;50.718;7.072;2023-05-02T15:05:51;9.70;;;7.35;;
14235;SDS011;7202;50.718;7.072;2023-05-02T15:08:20;10.52;;;7.13;;
14235;SDS011;7202;50.718;7.072;2023-05-02T15:10:48;10.27;;;6.85;;
14235;SDS011;7202;50.718;7.072;2023-05-02T15:13:17;10.48;;;6.25;;
14235;SDS011;7202;50.718;7.072;2023-05-02T15:15:46;9.98;;;6.30;;
14235;SDS011;7202;50.718;7.072;2023-05-02T15:18:15;8.60;;;5.22;;
14235;SDS011;7202;50.718;7.072;2023-05-02T15:20:45;6.82;;;4.47;;